sensor_id;sensor_type;location;lat;lon;timestamp;pressure;altitude;pressure_sealevel;temperature;humidity
7105;BME280;3594;42.152;24.714;2022-08-11T00:01:23;-24448.03;;;22.72;nan
7105;BME280;3594;42.152;24.714;2022-08-11T00:03:53;-24443.88;;;22.57;nan
7105;BME280;3594;42.152;24.714;2022-08-11T00:06:36;-24453.28;;;22.92;nan
7105;BME280;3594;42.152;24.714;2022-08-11T00:09:04;-24443.59;;;22.56;nan
7105;BME280;3594;42.152;24.714;2022-08-11T00:11:36;-24443.88;;;22.57;nan
7105;BME280;3594;42.152;24.714;2022-08-11T00:14:21;-24446.38;;;22.66;nan
7105;BME280;3594;42.152;24.714;2022-08-11T00:17:10;-24453.84;;;22.94;nan
7105;BME280;3594;42.152;24.714;2022-08-11T00:19:38;-24448.59;;;22.74;nan
7105;BME280;3594;42.152;24.714;2022-08-11T00:22:07;-24440.28;;;22.44;nan
7105;BME280;3594;42.152;24.714;2022-08-11T00:24:36;-24442.09;;;22.51;nan
7105;BME280;3594;42.152;24.714;2022-08-11T00:27:03;-24447.63;;;22.71;nan
7105;BME280;3594;42.152;24.714;2022-08-11T00:29:29;-24445.81;;;22.64;nan
7105;BME280;3594;42.152;24.714;2022-08-11T00:31:57;-24445.41;;;22.63;nan
7105;BME280;3594;42.152;24.714;2022-08-11T00:34:27;-24433.50;;;22.19;nan
7105;BME280;3594;42.152;24.714;2022-08-11T00:37:03;-24440.56;;;22.45;nan
7105;BME280;3594;42.152;24.714;2022-08-11T00:39:34;-24443.19;;;22.55;nan
7105;BME280;3594;42.152;24.714;2022-08-11T00:50:06;-24439.31;;;22.40;nan
7105;BME280;3594;42.152;24.714;2022-08-11T00:52:46;-24429.22;;;22.03;nan
7105;BME280;3594;42.152;24.714;2022-08-11T01:12:29;-24418.97;;;21.66;nan
7105;BME280;3594;42.152;24.714;2022-08-11T01:40:22;-24431.72;;;22.13;nan
7105;BME280;3594;42.152;24.714;2022-08-11T01:46:03;-24428.81;;;22.02;nan
7105;BME280;3594;42.152;24.714;2022-08-11T01:51:26;-24431.44;;;22.12;nan
7105;BME280;3594;42.152;24.714;2022-08-11T01:54:08;-24433.50;;;22.19;nan
7105;BME280;3594;42.152;24.714;2022-08-11T01:56:45;-24424.66;;;21.87;nan
7105;BME280;3594;42.152;24.714;2022-08-11T01:59:20;-24430.03;;;22.07;nan
7105;BME280;3594;42.152;24.714;2022-08-11T02:04:52;-24430.88;;;22.10;nan
7105;BME280;3594;42.152;24.714;2022-08-11T02:07:34;-24418.69;;;21.65;nan
7105;BME280;3594;42.152;24.714;2022-08-11T02:10:14;-24420.06;;;21.70;nan
7105;BME280;3594;42.152;24.714;2022-08-11T02:13:17;-24418.56;;;21.65;nan
7105;BME280;3594;42.152;24.714;2022-08-11T02:15:55;-24416.75;;;21.58;nan
7105;BME280;3594;42.152;24.714;2022-08-11T02:18:33;-24406.50;;;21.21;nan
7105;BME280;3594;42.152;24.714;2022-08-11T02:21:27;-24410.50;;;21.35;nan
7105;BME280;3594;42.152;24.714;2022-08-11T02:24:28;-24402.06;;;21.04;nan
7105;BME280;3594;42.152;24.714;2022-08-11T02:27:06;-24400.94;;;21.00;nan
7105;BME280;3594;42.152;24.714;2022-08-11T02:29:42;-24400.66;;;20.99;nan
7105;BME280;3594;42.152;24.714;2022-08-11T02:32:21;-24405.09;;;21.15;nan
7105;BME280;3594;42.152;24.714;2022-08-11T02:35:27;-24411.75;;;21.40;nan
7105;BME280;3594;42.152;24.714;2022-08-11T02:38:13;-24411.34;;;21.38;nan
7105;BME280;3594;42.152;24.714;2022-08-11T02:43:34;-24409.00;;;21.30;nan
7105;BME280;3594;42.152;24.714;2022-08-11T02:46:17;-24391.66;;;20.66;nan
7105;BME280;3594;42.152;24.714;2022-08-11T02:48:55;-24396.50;;;20.84;nan
7105;BME280;3594;42.152;24.714;2022-08-11T02:52:13;-24405.09;;;21.15;nan
7105;BME280;3594;42.152;24.714;2022-08-11T02:55:03;-24398.03;;;20.90;nan
7105;BME280;3594;42.152;24.714;2022-08-11T02:57:48;-24398.16;;;20.90;nan
7105;BME280;3594;42.152;24.714;2022-08-11T03:00:16;-24399.28;;;20.94;nan
7105;BME280;3594;42.152;24.714;2022-08-11T03:06:06;-24402.59;;;21.06;nan
7105;BME280;3594;42.152;24.714;2022-08-11T03:08:53;-24401.50;;;21.02;nan
7105;BME280;3594;42.152;24.714;2022-08-11T03:11:49;-24402.06;;;21.04;nan
7105;BME280;3594;42.152;24.714;2022-08-11T03:14:53;-24396.22;;;20.83;nan
7105;BME280;3594;42.152;24.714;2022-08-11T03:17:53;-24402.59;;;21.06;nan
7105;BME280;3594;42.152;24.714;2022-08-11T03:20:32;-24401.34;;;21.02;nan
7105;BME280;3594;42.152;24.714;2022-08-11T03:23:17;-24395.25;;;20.80;nan
7105;BME280;3594;42.152;24.714;2022-08-11T03:25:57;-24403.44;;;21.09;nan
7105;BME280;3594;42.152;24.714;2022-08-11T03:28:31;-24279.53;;;16.59;nan
7105;BME280;3594;42.152;24.714;2022-08-11T03:34:11;-24406.63;;;21.21;nan
7105;BME280;3594;42.152;24.714;2022-08-11T03:42:40;-24425.91;;;21.91;nan
7105;BME280;3594;42.152;24.714;2022-08-11T03:45:34;-24432.25;;;22.15;nan
7105;BME280;3594;42.152;24.714;2022-08-11T03:48:22;-24441.13;;;22.47;nan
7105;BME280;3594;42.152;24.714;2022-08-11T03:51:14;-24456.75;;;23.04;nan
7105;BME280;3594;42.152;24.714;2022-08-11T04:11:03;-24562.22;;;26.92;nan
7105;BME280;3594;42.152;24.714;2022-08-11T04:14:41;-24573.63;;;27.34;nan
7105;BME280;3594;42.152;24.714;2022-08-11T04:20:12;-24517.84;;;25.28;nan
7105;BME280;3594;42.152;24.714;2022-08-11T04:23:39;-24493.03;;;24.37;nan
7105;BME280;3594;42.152;24.714;2022-08-11T04:28:43;-24472.91;;;23.63;nan
7105;BME280;3594;42.152;24.714;2022-08-11T04:34:04;-24466.56;;;23.40;nan
7105;BME280;3594;42.152;24.714;2022-08-11T04:55:19;-24530.50;;;25.75;nan
7105;BME280;3594;42.152;24.714;2022-08-11T05:01:52;-24513.31;;;25.12;nan
7105;BME280;3594;42.152;24.714;2022-08-11T05:13:05;-24500.34;;;24.64;nan
7105;BME280;3594;42.152;24.714;2022-08-11T05:16:08;-24502.84;;;24.73;nan
7105;BME280;3594;42.152;24.714;2022-08-11T05:18:54;-24503.38;;;24.75;nan
7105;BME280;3594;42.152;24.714;2022-08-11T05:21:41;-24512.88;;;25.10;nan
7105;BME280;3594;42.152;24.714;2022-08-11T05:24:32;-24513.56;;;25.13;nan
7105;BME280;3594;42.152;24.714;2022-08-11T05:27:22;-24519.63;;;25.35;nan
7105;BME280;3594;42.152;24.714;2022-08-11T05:30:12;-24514.69;;;25.17;nan
7105;BME280;3594;42.152;24.714;2022-08-11T05:33:11;-24516.47;;;25.23;nan
7105;BME280;3594;42.152;24.714;2022-08-11T05:36:07;-24526.78;;;25.61;nan
7105;BME280;3594;42.152;24.714;2022-08-11T05:38:36;-24518.94;;;25.32;nan
7105;BME280;3594;42.152;24.714;2022-08-11T05:41:25;-24524.16;;;25.51;nan
7105;BME280;3594;42.152;24.714;2022-08-11T05:44:16;-24527.06;;;25.62;nan
7105;BME280;3594;42.152;24.714;2022-08-11T05:47:01;-24525.97;;;25.58;nan
7105;BME280;3594;42.152;24.714;2022-08-11T05:49:49;-24519.09;;;25.33;nan
7105;BME280;3594;42.152;24.714;2022-08-11T05:52:35;-24477.88;;;23.82;nan
7105;BME280;3594;42.152;24.714;2022-08-11T05:55:19;-24515.50;;;25.20;nan
7105;BME280;3594;42.152;24.714;2022-08-11T05:58:06;-24522.38;;;25.45;nan
7105;BME280;3594;42.152;24.714;2022-08-11T06:00:45;-24524.03;;;25.51;nan
7105;BME280;3594;42.152;24.714;2022-08-11T06:03:19;-24535.19;;;25.92;nan
7105;BME280;3594;42.152;24.714;2022-08-11T06:05:45;-24524.72;;;25.53;nan
7105;BME280;3594;42.152;24.714;2022-08-11T06:08:11;-24522.38;;;25.45;nan
7105;BME280;3594;42.152;24.714;2022-08-11T06:10:42;-24529.69;;;25.72;nan
7105;BME280;3594;42.152;24.714;2022-08-11T06:13:10;-24530.38;;;25.74;nan
7105;BME280;3594;42.152;24.714;2022-08-11T06:15:49;-24532.44;;;25.82;nan
7105;BME280;3594;42.152;24.714;2022-08-11T06:18:17;-24518.94;;;25.32;nan
7105;BME280;3594;42.152;24.714;2022-08-11T06:20:48;-24543.97;;;26.24;nan
7105;BME280;3594;42.152;24.714;2022-08-11T06:23:14;-24550.56;;;26.49;nan
7105;BME280;3594;42.152;24.714;2022-08-11T06:25:43;-24555.38;;;26.66;nan
7105;BME280;3594;42.152;24.714;2022-08-11T06:28:09;-24527.47;;;25.64;nan
7105;BME280;3594;42.152;24.714;2022-08-11T06:30:43;-24556.31;;;26.70;nan
7105;BME280;3594;42.152;24.714;2022-08-11T06:33:15;-24564.16;;;26.99;nan
7105;BME280;3594;42.152;24.714;2022-08-11T06:35:45;-24548.63;;;26.42;nan
7105;BME280;3594;42.152;24.714;2022-08-11T06:38:22;-24551.53;;;26.52;nan
7105;BME280;3594;42.152;24.714;2022-08-11T06:41:03;-24545.47;;;26.30;nan
7105;BME280;3594;42.152;24.714;2022-08-11T06:46:46;-24562.91;;;26.94;nan
7105;BME280;3594;42.152;24.714;2022-08-11T06:49:14;-24556.19;;;26.69;nan
7105;BME280;3594;42.152;24.714;2022-08-11T06:52:01;-24546.16;;;26.32;nan
7105;BME280;3594;42.152;24.714;2022-08-11T06:54:36;-24556.59;;;26.71;nan
7105;BME280;3594;42.152;24.714;2022-08-11T06:57:06;-24560.16;;;26.84;nan
7105;BME280;3594;42.152;24.714;2022-08-11T06:59:52;-24563.75;;;26.97;nan
7105;BME280;3594;42.152;24.714;2022-08-11T07:02:44;-24572.94;;;27.31;nan
7105;BME280;3594;42.152;24.714;2022-08-11T07:14:05;-24557.56;;;26.74;nan
7105;BME280;3594;42.152;24.714;2022-08-11T07:16:50;-24587.59;;;27.85;nan
7105;BME280;3594;42.152;24.714;2022-08-11T07:19:22;-24586.22;;;27.80;nan
7105;BME280;3594;42.152;24.714;2022-08-11T07:22:08;-24587.59;;;27.85;nan
7105;BME280;3594;42.152;24.714;2022-08-11T07:25:01;-24590.19;;;27.95;nan
7105;BME280;3594;42.152;24.714;2022-08-11T07:28:00;-24589.50;;;27.92;nan
7105;BME280;3594;42.152;24.714;2022-08-11T07:30:45;-24588.56;;;27.89;nan
7105;BME280;3594;42.152;24.714;2022-08-11T07:33:13;-24593.75;;;28.08;nan
7105;BME280;3594;42.152;24.714;2022-08-11T07:35:48;-24598.97;;;28.27;nan
7105;BME280;3594;42.152;24.714;2022-08-11T07:38:28;-24585.00;;;27.76;nan
7105;BME280;3594;42.152;24.714;2022-08-11T07:41:09;-24596.22;;;28.17;nan
7105;BME280;3594;42.152;24.714;2022-08-11T07:43:37;-24603.75;;;28.45;nan
7105;BME280;3594;42.152;24.714;2022-08-11T07:46:03;-24606.63;;;28.55;nan
7105;BME280;3594;42.152;24.714;2022-08-11T07:48:48;-24597.72;;;28.23;nan
7105;BME280;3594;42.152;24.714;2022-08-11T07:51:32;-24615.09;;;28.87;nan
7105;BME280;3594;42.152;24.714;2022-08-11T07:54:17;-24614.00;;;28.83;nan
7105;BME280;3594;42.152;24.714;2022-08-11T07:56:43;-24614.13;;;28.83;nan
7105;BME280;3594;42.152;24.714;2022-08-11T07:59:10;-24612.50;;;28.77;nan
7105;BME280;3594;42.152;24.714;2022-08-11T08:01:55;-24616.19;;;28.91;nan
7105;BME280;3594;42.152;24.714;2022-08-11T08:04:40;-24612.50;;;28.77;nan
7105;BME280;3594;42.152;24.714;2022-08-11T08:07:25;-24604.03;;;28.46;nan
7105;BME280;3594;42.152;24.714;2022-08-11T08:10:09;-24592.25;;;28.02;nan
7105;BME280;3594;42.152;24.714;2022-08-11T08:12:54;-24597.59;;;28.22;nan
7105;BME280;3594;42.152;24.714;2022-08-11T08:15:40;-24593.06;;;28.05;nan
7105;BME280;3594;42.152;24.714;2022-08-11T08:18:25;-24603.34;;;28.43;nan
7105;BME280;3594;42.152;24.714;2022-08-11T08:20:51;-24607.03;;;28.57;nan
7105;BME280;3594;42.152;24.714;2022-08-11T08:23:21;-24608.81;;;28.64;nan
7105;BME280;3594;42.152;24.714;2022-08-11T08:25:58;-24603.59;;;28.44;nan
7105;BME280;3594;42.152;24.714;2022-08-11T08:28:27;-24597.44;;;28.22;nan
7105;BME280;3594;42.152;24.714;2022-08-11T08:30:53;-24593.63;;;28.07;nan
7105;BME280;3594;42.152;24.714;2022-08-11T08:33:22;-24609.06;;;28.65;nan
7105;BME280;3594;42.152;24.714;2022-08-11T08:35:52;-24616.59;;;28.92;nan
7105;BME280;3594;42.152;24.714;2022-08-11T08:38:55;-24606.75;;;28.56;nan
7105;BME280;3594;42.152;24.714;2022-08-11T08:41:23;-24605.38;;;28.51;nan
7105;BME280;3594;42.152;24.714;2022-08-11T08:43:52;-24590.06;;;27.94;nan
7105;BME280;3594;42.152;24.714;2022-08-11T08:46:21;-24586.09;;;27.80;nan
7105;BME280;3594;42.152;24.714;2022-08-11T08:48:49;-24585.69;;;27.78;nan
7105;BME280;3594;42.152;24.714;2022-08-11T08:51:15;-24588.81;;;27.90;nan
7105;BME280;3594;42.152;24.714;2022-08-11T08:54:03;-24583.75;;;27.71;nan
7105;BME280;3594;42.152;24.714;2022-08-11T08:56:30;-24600.06;;;28.31;nan
7105;BME280;3594;42.152;24.714;2022-08-11T08:59:00;-24606.34;;;28.54;nan
7105;BME280;3594;42.152;24.714;2022-08-11T09:01:29;-24619.34;;;29.03;nan
7105;BME280;3594;42.152;24.714;2022-08-11T09:03:56;-24622.88;;;29.16;nan
7105;BME280;3594;42.152;24.714;2022-08-11T09:06:22;-24636.94;;;29.68;nan
7105;BME280;3594;42.152;24.714;2022-08-11T09:08:48;-24632.44;;;29.51;nan
7105;BME280;3594;42.152;24.714;2022-08-11T09:11:14;-24633.94;;;29.57;nan
7105;BME280;3594;42.152;24.714;2022-08-11T09:13:59;-24635.84;;;29.64;nan
7105;BME280;3594;42.152;24.714;2022-08-11T09:16:27;-24643.63;;;29.93;nan
7105;BME280;3594;42.152;24.714;2022-08-11T09:18:53;-24652.09;;;30.24;nan
7105;BME280;3594;42.152;24.714;2022-08-11T09:21:19;-24653.19;;;30.28;nan
7105;BME280;3594;42.152;24.714;2022-08-11T09:23:48;-24646.50;;;30.03;nan
7105;BME280;3594;42.152;24.714;2022-08-11T09:26:34;-24609.50;;;28.66;nan
7105;BME280;3594;42.152;24.714;2022-08-11T09:29:19;-24643.09;;;29.91;nan
7105;BME280;3594;42.152;24.714;2022-08-11T09:31:45;-24648.00;;;30.09;nan
7105;BME280;3594;42.152;24.714;2022-08-11T09:34:13;-24648.13;;;30.09;nan
7105;BME280;3594;42.152;24.714;2022-08-11T09:36:40;-24648.81;;;30.12;nan
7105;BME280;3594;42.152;24.714;2022-08-11T09:39:28;-24648.81;;;30.12;nan
7105;BME280;3594;42.152;24.714;2022-08-11T09:42:13;-24653.03;;;30.27;nan
7105;BME280;3594;42.152;24.714;2022-08-11T09:44:40;-24656.72;;;30.41;nan
7105;BME280;3594;42.152;24.714;2022-08-11T09:47:29;-24658.63;;;30.48;nan
7105;BME280;3594;42.152;24.714;2022-08-11T09:49:58;-24649.38;;;30.14;nan
7105;BME280;3594;42.152;24.714;2022-08-11T09:52:24;-24659.31;;;30.51;nan
7105;BME280;3594;42.152;24.714;2022-08-11T09:54:51;-24673.59;;;31.04;nan
7105;BME280;3594;42.152;24.714;2022-08-11T10:00:04;-24657.13;;;30.43;nan
7105;BME280;3594;42.152;24.714;2022-08-11T10:02:31;-24654.00;;;30.31;nan
7105;BME280;3594;42.152;24.714;2022-08-11T10:04:57;-24655.09;;;30.35;nan
7105;BME280;3594;42.152;24.714;2022-08-11T10:07:44;-24674.97;;;31.09;nan
7105;BME280;3594;42.152;24.714;2022-08-11T10:12:47;-24674.03;;;31.05;nan
7105;BME280;3594;42.152;24.714;2022-08-11T10:15:16;-24677.84;;;31.20;nan
7105;BME280;3594;42.152;24.714;2022-08-11T10:18:05;-24672.94;;;31.01;nan
7105;BME280;3594;42.152;24.714;2022-08-11T10:20:54;-24685.84;;;31.49;nan
7105;BME280;3594;42.152;24.714;2022-08-11T10:23:21;-24661.50;;;30.59;nan
7105;BME280;3594;42.152;24.714;2022-08-11T10:26:07;-24691.44;;;31.70;nan
7105;BME280;3594;42.152;24.714;2022-08-11T10:28:52;-24696.47;;;31.89;nan
7105;BME280;3594;42.152;24.714;2022-08-11T10:31:19;-24701.34;;;32.07;nan
7105;BME280;3594;42.152;24.714;2022-08-11T10:34:04;-24695.09;;;31.84;nan
7105;BME280;3594;42.152;24.714;2022-08-11T10:38:58;-24675.25;;;31.10;nan
7105;BME280;3594;42.152;24.714;2022-08-11T10:41:25;-24664.91;;;30.71;nan
7105;BME280;3594;42.152;24.714;2022-08-11T10:44:10;-24669.94;;;30.90;nan
7105;BME280;3594;42.152;24.714;2022-08-11T10:46:37;-24672.94;;;31.01;nan
7105;BME280;3594;42.152;24.714;2022-08-11T10:49:22;-24694.00;;;31.80;nan
7105;BME280;3594;42.152;24.714;2022-08-11T10:51:50;-24684.34;;;31.44;nan
7105;BME280;3594;42.152;24.714;2022-08-11T10:54:35;-24669.78;;;30.90;nan
7105;BME280;3594;42.152;24.714;2022-08-11T10:57:22;-24671.56;;;30.96;nan
7105;BME280;3594;42.152;24.714;2022-08-11T11:00:09;-24660.25;;;30.54;nan
7105;BME280;3594;42.152;24.714;2022-08-11T11:02:40;-24668.16;;;30.84;nan
7105;BME280;3594;42.152;24.714;2022-08-11T11:05:20;-24664.91;;;30.71;nan
7105;BME280;3594;42.152;24.714;2022-08-11T11:10:27;-24682.31;;;31.36;nan
7105;BME280;3594;42.152;24.714;2022-08-11T11:12:55;-24595.81;;;28.16;nan
7105;BME280;3594;42.152;24.714;2022-08-11T11:15:41;-24654.94;;;30.35;nan
7105;BME280;3594;42.152;24.714;2022-08-11T11:18:30;-24658.09;;;30.46;nan
7105;BME280;3594;42.152;24.714;2022-08-11T11:21:12;-24668.44;;;30.85;nan
7105;BME280;3594;42.152;24.714;2022-08-11T11:23:42;-24673.75;;;31.04;nan
7105;BME280;3594;42.152;24.714;2022-08-11T11:35:06;-24720.22;;;32.77;nan
7105;BME280;3594;42.152;24.714;2022-08-11T11:37:35;-24728.22;;;33.07;nan
7105;BME280;3594;42.152;24.714;2022-08-11T11:40:08;-24720.34;;;32.78;nan
7105;BME280;3594;42.152;24.714;2022-08-11T11:42:39;-24675.53;;;31.11;nan
7105;BME280;3594;42.152;24.714;2022-08-11T11:45:06;-24674.28;;;31.06;nan
7105;BME280;3594;42.152;24.714;2022-08-11T11:47:32;-24669.94;;;30.90;nan
7105;BME280;3594;42.152;24.714;2022-08-11T11:49:59;-24680.56;;;31.30;nan
7105;BME280;3594;42.152;24.714;2022-08-11T11:52:26;-24697.00;;;31.91;nan
7105;BME280;3594;42.152;24.714;2022-08-11T11:54:55;-24710.97;;;32.43;nan
7105;BME280;3594;42.152;24.714;2022-08-11T11:57:21;-24710.84;;;32.42;nan
7105;BME280;3594;42.152;24.714;2022-08-11T12:00:08;-24707.47;;;32.30;nan
7105;BME280;3594;42.152;24.714;2022-08-11T12:02:55;-24685.97;;;31.50;nan
7105;BME280;3594;42.152;24.714;2022-08-11T12:05:23;-24675.78;;;31.12;nan
7105;BME280;3594;42.152;24.714;2022-08-11T12:07:49;-24675.78;;;31.12;nan
7105;BME280;3594;42.152;24.714;2022-08-11T12:10:56;-24676.19;;;31.13;nan
7105;BME280;3594;42.152;24.714;2022-08-11T12:16:10;-24683.41;;;31.40;nan
7105;BME280;3594;42.152;24.714;2022-08-11T12:18:39;-24683.00;;;31.39;nan
7105;BME280;3594;42.152;24.714;2022-08-11T12:21:06;-24680.13;;;31.28;nan
7105;BME280;3594;42.152;24.714;2022-08-11T12:23:34;-24679.31;;;31.25;nan
7105;BME280;3594;42.152;24.714;2022-08-11T12:26:19;-24676.59;;;31.15;nan
7105;BME280;3594;42.152;24.714;2022-08-11T12:29:05;-24670.63;;;30.93;nan
7105;BME280;3594;42.152;24.714;2022-08-11T12:31:33;-24673.47;;;31.03;nan
7105;BME280;3594;42.152;24.714;2022-08-11T12:34:06;-24683.53;;;31.41;nan
7105;BME280;3594;42.152;24.714;2022-08-11T12:36:51;-24688.16;;;31.58;nan
7105;BME280;3594;42.152;24.714;2022-08-11T12:39:22;-24692.09;;;31.73;nan
7105;BME280;3594;42.152;24.714;2022-08-11T12:42:11;-24687.75;;;31.56;nan
7105;BME280;3594;42.152;24.714;2022-08-11T12:44:57;-24665.16;;;30.73;nan
7105;BME280;3594;42.152;24.714;2022-08-11T12:47:49;-24671.03;;;30.94;nan
7105;BME280;3594;42.152;24.714;2022-08-11T12:50:34;-24683.69;;;31.41;nan
7105;BME280;3594;42.152;24.714;2022-08-11T12:53:30;-24681.63;;;31.34;nan
7105;BME280;3594;42.152;24.714;2022-08-11T12:56:02;-24698.91;;;31.98;nan
7105;BME280;3594;42.152;24.714;2022-08-11T12:58:48;-24685.97;;;31.50;nan
7105;BME280;3594;42.152;24.714;2022-08-11T13:01:15;-24676.19;;;31.13;nan
7105;BME280;3594;42.152;24.714;2022-08-11T13:03:59;-24678.78;;;31.23;nan
7105;BME280;3594;42.152;24.714;2022-08-11T13:06:44;-24675.09;;;31.09;nan
7105;BME280;3594;42.152;24.714;2022-08-11T13:09:10;-24687.75;;;31.56;nan
7105;BME280;3594;42.152;24.714;2022-08-11T13:11:38;-24683.00;;;31.39;nan
7105;BME280;3594;42.152;24.714;2022-08-11T13:14:23;-24689.94;;;31.65;nan
7105;BME280;3594;42.152;24.714;2022-08-11T13:16:50;-24678.50;;;31.22;nan
7105;BME280;3594;42.152;24.714;2022-08-11T13:19:36;-24664.91;;;30.71;nan
7105;BME280;3594;42.152;24.714;2022-08-11T13:22:02;-24661.91;;;30.60;nan
7105;BME280;3594;42.152;24.714;2022-08-11T13:24:30;-24674.03;;;31.05;nan
7105;BME280;3594;42.152;24.714;2022-08-11T13:26:58;-24677.41;;;31.18;nan
7105;BME280;3594;42.152;24.714;2022-08-11T13:29:26;-24681.38;;;31.33;nan
7105;BME280;3594;42.152;24.714;2022-08-11T13:31:53;-24700.41;;;32.04;nan
7105;BME280;3594;42.152;24.714;2022-08-11T13:34:22;-24717.91;;;32.69;nan
7105;BME280;3594;42.152;24.714;2022-08-11T13:36:50;-24701.75;;;32.09;nan
7105;BME280;3594;42.152;24.714;2022-08-11T13:39:16;-24710.03;;;32.39;nan
7105;BME280;3594;42.152;24.714;2022-08-11T13:41:42;-24718.19;;;32.70;nan
7105;BME280;3594;42.152;24.714;2022-08-11T13:44:10;-24718.31;;;32.70;nan
7105;BME280;3594;42.152;24.714;2022-08-11T13:46:38;-24695.22;;;31.84;nan
7105;BME280;3594;42.152;24.714;2022-08-11T13:49:05;-24695.78;;;31.86;nan
7105;BME280;3594;42.152;24.714;2022-08-11T13:51:34;-24687.75;;;31.56;nan
7105;BME280;3594;42.152;24.714;2022-08-11T13:54:09;-24691.84;;;31.72;nan
7105;BME280;3594;42.152;24.714;2022-08-11T13:56:37;-24680.56;;;31.30;nan
7105;BME280;3594;42.152;24.714;2022-08-11T13:59:09;-24670.47;;;30.92;nan
7105;BME280;3594;42.152;24.714;2022-08-11T14:01:43;-24674.44;;;31.07;nan
7105;BME280;3594;42.152;24.714;2022-08-11T14:04:13;-24681.50;;;31.33;nan
7105;BME280;3594;42.152;24.714;2022-08-11T14:06:45;-24691.69;;;31.71;nan
7105;BME280;3594;42.152;24.714;2022-08-11T14:09:15;-24691.84;;;31.72;nan
7105;BME280;3594;42.152;24.714;2022-08-11T14:11:44;-24685.72;;;31.49;nan
7105;BME280;3594;42.152;24.714;2022-08-11T14:14:31;-24691.28;;;31.70;nan
7105;BME280;3594;42.152;24.714;2022-08-11T14:17:03;-24671.84;;;30.97;nan
7105;BME280;3594;42.152;24.714;2022-08-11T14:19:38;-24663.13;;;30.65;nan
7105;BME280;3594;42.152;24.714;2022-08-11T14:22:05;-24664.09;;;30.68;nan
7105;BME280;3594;42.152;24.714;2022-08-11T14:24:39;-24657.94;;;30.46;nan
7105;BME280;3594;42.152;24.714;2022-08-11T14:27:15;-24653.72;;;30.30;nan
7105;BME280;3594;42.152;24.714;2022-08-11T14:29:43;-24648.13;;;30.09;nan
7105;BME280;3594;42.152;24.714;2022-08-11T14:32:10;-24652.91;;;30.27;nan
7105;BME280;3594;42.152;24.714;2022-08-11T14:34:40;-24649.91;;;30.16;nan
7105;BME280;3594;42.152;24.714;2022-08-11T14:37:07;-24650.44;;;30.18;nan
7105;BME280;3594;42.152;24.714;2022-08-11T14:39:40;-24650.88;;;30.19;nan
7105;BME280;3594;42.152;24.714;2022-08-11T14:42:07;-24652.09;;;30.24;nan
7105;BME280;3594;42.152;24.714;2022-08-11T14:44:59;-24650.31;;;30.17;nan
7105;BME280;3594;42.152;24.714;2022-08-11T14:47:47;-24643.78;;;29.93;nan
7105;BME280;3594;42.152;24.714;2022-08-11T14:52:49;-24647.19;;;30.06;nan
7105;BME280;3594;42.152;24.714;2022-08-11T14:55:17;-24649.09;;;30.13;nan
7105;BME280;3594;42.152;24.714;2022-08-11T14:58:02;-24648.00;;;30.09;nan
7105;BME280;3594;42.152;24.714;2022-08-11T15:00:29;-24646.38;;;30.03;nan
7105;BME280;3594;42.152;24.714;2022-08-11T15:02:57;-24647.19;;;30.06;nan
7105;BME280;3594;42.152;24.714;2022-08-11T15:05:38;-24657.00;;;30.42;nan
7105;BME280;3594;42.152;24.714;2022-08-11T15:08:06;-24654.53;;;30.33;nan
7105;BME280;3594;42.152;24.714;2022-08-11T15:10:32;-24633.66;;;29.56;nan
7105;BME280;3594;42.152;24.714;2022-08-11T15:12:59;-24651.81;;;30.23;nan
7105;BME280;3594;42.152;24.714;2022-08-11T15:15:25;-24645.94;;;30.01;nan
7105;BME280;3594;42.152;24.714;2022-08-11T15:18:14;-24639.00;;;29.75;nan
7105;BME280;3594;42.152;24.714;2022-08-11T15:20:42;-24632.19;;;29.50;nan
7105;BME280;3594;42.152;24.714;2022-08-11T15:23:27;-24636.25;;;29.65;nan
7105;BME280;3594;42.152;24.714;2022-08-11T15:28:46;-24621.78;;;29.12;nan
7105;BME280;3594;42.152;24.714;2022-08-11T15:31:31;-24621.53;;;29.11;nan
7105;BME280;3594;42.152;24.714;2022-08-11T15:34:09;-24625.19;;;29.24;nan
7105;BME280;3594;42.152;24.714;2022-08-11T15:37:06;-24625.34;;;29.25;nan
7105;BME280;3594;42.152;24.714;2022-08-11T15:39:55;-24616.06;;;28.90;nan
7105;BME280;3594;42.152;24.714;2022-08-11T15:43:30;-24622.06;;;29.13;nan
7105;BME280;3594;42.152;24.714;2022-08-11T15:45:51;-24621.78;;;29.12;nan
7105;BME280;3594;42.152;24.714;2022-08-11T15:51:27;-24623.44;;;29.18;nan
7105;BME280;3594;42.152;24.714;2022-08-11T15:53:54;-24614.81;;;28.86;nan
7105;BME280;3594;42.152;24.714;2022-08-11T15:56:23;-24615.66;;;28.89;nan
7105;BME280;3594;42.152;24.714;2022-08-11T15:58:51;-24613.31;;;28.80;nan
7105;BME280;3594;42.152;24.714;2022-08-11T16:01:38;-24618.50;;;28.99;nan
7105;BME280;3594;42.152;24.714;2022-08-11T16:04:25;-24591.16;;;27.98;nan
7105;BME280;3594;42.152;24.714;2022-08-11T16:11:51;-24588.00;;;27.87;nan
7105;BME280;3594;42.152;24.714;2022-08-11T16:14:19;-24589.38;;;27.92;nan
7105;BME280;3594;42.152;24.714;2022-08-11T16:17:06;-24586.50;;;27.81;nan
7105;BME280;3594;42.152;24.714;2022-08-11T16:19:34;-24586.34;;;27.81;nan
7105;BME280;3594;42.152;24.714;2022-08-11T16:22:07;-24575.13;;;27.39;nan
7105;BME280;3594;42.152;24.714;2022-08-11T16:24:40;-24548.09;;;26.40;nan
7105;BME280;3594;42.152;24.714;2022-08-11T16:27:10;-24543.16;;;26.21;nan
7105;BME280;3594;42.152;24.714;2022-08-11T16:29:43;-24538.59;;;26.05;nan
7105;BME280;3594;42.152;24.714;2022-08-11T16:32:13;-24527.34;;;25.63;nan
7105;BME280;3594;42.152;24.714;2022-08-11T16:34:47;-24521.56;;;25.42;nan
7105;BME280;3594;42.152;24.714;2022-08-11T16:37:33;-24504.63;;;24.80;nan
7105;BME280;3594;42.152;24.714;2022-08-11T16:40:18;-24496.50;;;24.50;nan
7105;BME280;3594;42.152;24.714;2022-08-11T16:42:46;-24490.72;;;24.29;nan
7105;BME280;3594;42.152;24.714;2022-08-11T16:45:31;-24479.38;;;23.87;nan
7105;BME280;3594;42.152;24.714;2022-08-11T16:48:18;-24470.16;;;23.53;nan
7105;BME280;3594;42.152;24.714;2022-08-11T16:50:45;-24475.81;;;23.74;nan
7105;BME280;3594;42.152;24.714;2022-08-11T16:53:10;-24473.88;;;23.67;nan
7105;BME280;3594;42.152;24.714;2022-08-11T16:55:36;-24474.56;;;23.69;nan
7105;BME280;3594;42.152;24.714;2022-08-11T16:58:04;-24469.88;;;23.52;nan
7105;BME280;3594;42.152;24.714;2022-08-11T17:00:50;-24464.06;;;23.31;nan
7105;BME280;3594;42.152;24.714;2022-08-11T17:03:17;-24459.09;;;23.13;nan
7105;BME280;3594;42.152;24.714;2022-08-11T17:06:04;-24459.50;;;23.14;nan
7105;BME280;3594;42.152;24.714;2022-08-11T17:08:51;-24462.97;;;23.27;nan
7105;BME280;3594;42.152;24.714;2022-08-11T17:11:43;-24463.94;;;23.30;nan
7105;BME280;3594;42.152;24.714;2022-08-11T17:14:35;-24455.91;;;23.01;nan